<?xml version="1.0" encoding="UTF-8" standalone="no" ?>
<gpx xmlns="http://www.topografix.com/GPX/1/1" creator="MapSource 6.11.6" version="1.1" xmlns:xsi="http://www.w3.org/2001/XMLSchema-instance" xsi:schemaLocation="http://www.topografix.com/GPX/1/1 http://www.topografix.com/GPX/1/1/gpx.xsd">

  <metadata>
    <link href="http://www.garmin.com">
      <text>Garmin International</text>
    </link>
    <time>2009-02-19T20:22:55Z</time>
    <bounds maxlat="50.764999" maxlon="6.388433" minlat="50.721387" minlon="6.317602"/>
  </metadata>

  <trk>
    <name>Wehestausee RW</name>
    <extensions>
      <gpxx:TrackExtension xmlns:gpxx="http://www.garmin.com/xmlschemas/GpxExtensions/v3" xmlns:xsi="http://www.w3.org/2001/XMLSchema-instance" xsi:schemaLocation="http://www.garmin.com/xmlschemas/GpxExtensions/v3 http://www.garmin.com/xmlschemas/GpxExtensions/v3/GpxExtensionsv3.xsd">
        <gpxx:DisplayColor>White</gpxx:DisplayColor>
      </gpxx:TrackExtension>
    </extensions>
    <trkseg>
      <trkpt lat="50.735355" lon="6.380152">
        <ele>367.361000</ele>
        <time>2009-02-19T21:26:38Z</time>
      </trkpt>
      <trkpt lat="50.735339" lon="6.380001">
        <ele>366.880000</ele>
        <time>2009-02-19T21:26:44Z</time>
      </trkpt>
      <trkpt lat="50.735397" lon="6.379555">
        <ele>366.400000</ele>
        <time>2009-02-19T21:27:05Z</time>
      </trkpt>
      <trkpt lat="50.736025" lon="6.374195">
        <ele>364.477000</ele>
        <time>2009-02-19T21:31:14Z</time>
      </trkpt>
      <trkpt lat="50.736331" lon="6.373264">
        <ele>364.958000</ele>
        <time>2009-02-19T21:32:01Z</time>
      </trkpt>
      <trkpt lat="50.738082" lon="6.369581">
        <ele>356.786000</ele>
        <time>2009-02-19T21:35:31Z</time>
      </trkpt>
      <trkpt lat="50.738449" lon="6.369301">
        <ele>354.864000</ele>
        <time>2009-02-19T21:36:01Z</time>
      </trkpt>
      <trkpt lat="50.739793" lon="6.368422">
        <ele>350.057000</ele>
        <time>2009-02-19T21:37:45Z</time>
      </trkpt>
      <trkpt lat="50.738690" lon="6.365197">
        <ele>341.405000</ele>
        <time>2009-02-19T21:40:33Z</time>
      </trkpt>
      <trkpt lat="50.738464" lon="6.364164">
        <ele>338.521000</ele>
        <time>2009-02-19T21:41:22Z</time>
      </trkpt>
      <trkpt lat="50.738572" lon="6.362230">
        <ele>328.908000</ele>
        <time>2009-02-19T21:42:51Z</time>
      </trkpt>
      <trkpt lat="50.738697" lon="6.362109">
        <ele>327.466000</ele>
        <time>2009-02-19T21:43:01Z</time>
      </trkpt>
      <trkpt lat="50.739739" lon="6.361594">
        <ele>314.969000</ele>
        <time>2009-02-19T21:44:20Z</time>
      </trkpt>
      <trkpt lat="50.740013" lon="6.360464">
        <ele>303.433000</ele>
        <time>2009-02-19T21:45:15Z</time>
      </trkpt>
      <trkpt lat="50.739980" lon="6.359912">
        <ele>299.588000</ele>
        <time>2009-02-19T21:45:40Z</time>
      </trkpt>
      <trkpt lat="50.739992" lon="6.359431">
        <ele>297.185000</ele>
        <time>2009-02-19T21:46:02Z</time>
      </trkpt>
      <trkpt lat="50.740073" lon="6.358690">
        <ele>292.378000</ele>
        <time>2009-02-19T21:46:37Z</time>
      </trkpt>
      <trkpt lat="50.740274" lon="6.357937">
        <ele>285.649000</ele>
        <time>2009-02-19T21:47:14Z</time>
      </trkpt>
      <trkpt lat="50.740599" lon="6.356891">
        <ele>275.555000</ele>
        <time>2009-02-19T21:48:07Z</time>
      </trkpt>
      <trkpt lat="50.740695" lon="6.356642">
        <ele>272.190000</ele>
        <time>2009-02-19T21:48:20Z</time>
      </trkpt>
      <trkpt lat="50.740940" lon="6.356240">
        <ele>262.577000</ele>
        <time>2009-02-19T21:48:46Z</time>
      </trkpt>
      <trkpt lat="50.741016" lon="6.357449">
        <ele>266.903000</ele>
        <time>2009-02-19T21:49:41Z</time>
      </trkpt>
      <trkpt lat="50.741003" lon="6.358571">
        <ele>272.190000</ele>
        <time>2009-02-19T21:50:32Z</time>
      </trkpt>
      <trkpt lat="50.741570" lon="6.360441">
        <ele>280.842000</ele>
        <time>2009-02-19T21:52:07Z</time>
      </trkpt>
      <trkpt lat="50.741796" lon="6.360919">
        <ele>282.765000</ele>
        <time>2009-02-19T21:52:34Z</time>
      </trkpt>
      <trkpt lat="50.742017" lon="6.361301">
        <ele>286.130000</ele>
        <time>2009-02-19T21:52:57Z</time>
      </trkpt>
      <trkpt lat="50.742295" lon="6.361824">
        <ele>290.456000</ele>
        <time>2009-02-19T21:53:29Z</time>
      </trkpt>
      <trkpt lat="50.742779" lon="6.363266">
        <ele>300.549000</ele>
        <time>2009-02-19T21:54:43Z</time>
      </trkpt>
      <trkpt lat="50.742970" lon="6.364117">
        <ele>302.953000</ele>
        <time>2009-02-19T21:55:24Z</time>
      </trkpt>
      <trkpt lat="50.743211" lon="6.364440">
        <ele>305.837000</ele>
        <time>2009-02-19T21:55:47Z</time>
      </trkpt>
      <trkpt lat="50.743156" lon="6.364804">
        <ele>307.759000</ele>
        <time>2009-02-19T21:56:04Z</time>
      </trkpt>
      <trkpt lat="50.743366" lon="6.365784">
        <ele>312.566000</ele>
        <time>2009-02-19T21:56:51Z</time>
      </trkpt>
      <trkpt lat="50.743322" lon="6.366179">
        <ele>314.488000</ele>
        <time>2009-02-19T21:57:09Z</time>
      </trkpt>
      <trkpt lat="50.743431" lon="6.366687">
        <ele>317.853000</ele>
        <time>2009-02-19T21:57:34Z</time>
      </trkpt>
      <trkpt lat="50.743757" lon="6.367074">
        <ele>324.582000</ele>
        <time>2009-02-19T21:58:03Z</time>
      </trkpt>
      <trkpt lat="50.743883" lon="6.367745">
        <ele>327.466000</ele>
        <time>2009-02-19T21:58:35Z</time>
      </trkpt>
      <trkpt lat="50.743960" lon="6.368099">
        <ele>330.350000</ele>
        <time>2009-02-19T21:58:52Z</time>
      </trkpt>
      <trkpt lat="50.744026" lon="6.367969">
        <ele>330.350000</ele>
        <time>2009-02-19T21:59:00Z</time>
      </trkpt>
      <trkpt lat="50.744634" lon="6.367076">
        <ele>329.870000</ele>
        <time>2009-02-19T21:59:59Z</time>
      </trkpt>
      <trkpt lat="50.744974" lon="6.366681">
        <ele>326.986000</ele>
        <time>2009-02-19T22:00:30Z</time>
      </trkpt>
      <trkpt lat="50.745039" lon="6.366506">
        <ele>326.986000</ele>
        <time>2009-02-19T22:00:39Z</time>
      </trkpt>
      <trkpt lat="50.745231" lon="6.365869">
        <ele>323.621000</ele>
        <time>2009-02-19T22:01:11Z</time>
      </trkpt>
      <trkpt lat="50.745484" lon="6.365439">
        <ele>322.179000</ele>
        <time>2009-02-19T22:01:38Z</time>
      </trkpt>
      <trkpt lat="50.746056" lon="6.364857">
        <ele>321.218000</ele>
        <time>2009-02-19T22:02:27Z</time>
      </trkpt>
      <trkpt lat="50.746527" lon="6.364595">
        <ele>323.140000</ele>
        <time>2009-02-19T22:03:03Z</time>
      </trkpt>
      <trkpt lat="50.747101" lon="6.364252">
        <ele>321.698000</ele>
        <time>2009-02-19T22:03:47Z</time>
      </trkpt>
      <trkpt lat="50.747646" lon="6.364297">
        <ele>318.814000</ele>
        <time>2009-02-19T22:04:26Z</time>
      </trkpt>
      <trkpt lat="50.749089" lon="6.363790">
        <ele>311.124000</ele>
        <time>2009-02-19T22:06:13Z</time>
      </trkpt>
      <trkpt lat="50.749837" lon="6.363632">
        <ele>306.798000</ele>
        <time>2009-02-19T22:07:07Z</time>
      </trkpt>
      <trkpt lat="50.750000" lon="6.363623">
        <ele>306.798000</ele>
        <time>2009-02-19T22:07:19Z</time>
      </trkpt>
      <trkpt lat="50.750236" lon="6.363832">
        <ele>305.356000</ele>
        <time>2009-02-19T22:07:38Z</time>
      </trkpt>
      <trkpt lat="50.750329" lon="6.364101">
        <ele>305.356000</ele>
        <time>2009-02-19T22:07:52Z</time>
      </trkpt>
      <trkpt lat="50.750653" lon="6.365212">
        <ele>301.991000</ele>
        <time>2009-02-19T22:08:48Z</time>
      </trkpt>
      <trkpt lat="50.750924" lon="6.366081">
        <ele>294.781000</ele>
        <time>2009-02-19T22:09:32Z</time>
      </trkpt>
      <trkpt lat="50.751077" lon="6.366459">
        <ele>291.897000</ele>
        <time>2009-02-19T22:09:53Z</time>
      </trkpt>
      <trkpt lat="50.751156" lon="6.366554">
        <ele>291.417000</ele>
        <time>2009-02-19T22:10:00Z</time>
      </trkpt>
      <trkpt lat="50.751852" lon="6.367297">
        <ele>284.688000</ele>
        <time>2009-02-19T22:11:00Z</time>
      </trkpt>
      <trkpt lat="50.752207" lon="6.367376">
        <ele>280.842000</ele>
        <time>2009-02-19T22:11:26Z</time>
      </trkpt>
      <trkpt lat="50.752575" lon="6.367421">
        <ele>276.036000</ele>
        <time>2009-02-19T22:11:53Z</time>
      </trkpt>
      <trkpt lat="50.752796" lon="6.367578">
        <ele>272.671000</ele>
        <time>2009-02-19T22:12:10Z</time>
      </trkpt>
      <trkpt lat="50.753089" lon="6.367503">
        <ele>270.748000</ele>
        <time>2009-02-19T22:12:32Z</time>
      </trkpt>
      <trkpt lat="50.753497" lon="6.367227">
        <ele>268.826000</ele>
        <time>2009-02-19T22:13:03Z</time>
      </trkpt>
      <trkpt lat="50.753736" lon="6.366843">
        <ele>267.865000</ele>
        <time>2009-02-19T22:13:28Z</time>
      </trkpt>
      <trkpt lat="50.753996" lon="6.366430">
        <ele>266.422000</ele>
        <time>2009-02-19T22:13:55Z</time>
      </trkpt>
      <trkpt lat="50.753970" lon="6.366606">
        <ele>265.461000</ele>
        <time>2009-02-19T22:14:03Z</time>
      </trkpt>
      <trkpt lat="50.753997" lon="6.367369">
        <ele>265.942000</ele>
        <time>2009-02-19T22:14:38Z</time>
      </trkpt>
      <trkpt lat="50.753957" lon="6.367916">
        <ele>270.268000</ele>
        <time>2009-02-19T22:15:03Z</time>
      </trkpt>
      <trkpt lat="50.753994" lon="6.368471">
        <ele>274.113000</ele>
        <time>2009-02-19T22:15:28Z</time>
      </trkpt>
      <trkpt lat="50.754466" lon="6.369290">
        <ele>279.400000</ele>
        <time>2009-02-19T22:16:19Z</time>
      </trkpt>
      <trkpt lat="50.754778" lon="6.369901">
        <ele>281.804000</ele>
        <time>2009-02-19T22:16:54Z</time>
      </trkpt>
      <trkpt lat="50.755063" lon="6.370409">
        <ele>283.726000</ele>
        <time>2009-02-19T22:17:25Z</time>
      </trkpt>
      <trkpt lat="50.755631" lon="6.371064">
        <ele>286.610000</ele>
        <time>2009-02-19T22:18:16Z</time>
      </trkpt>
      <trkpt lat="50.755943" lon="6.371641">
        <ele>290.936000</ele>
        <time>2009-02-19T22:18:50Z</time>
      </trkpt>
      <trkpt lat="50.756349" lon="6.372207">
        <ele>293.339000</ele>
        <time>2009-02-19T22:19:29Z</time>
      </trkpt>
      <trkpt lat="50.756533" lon="6.373005">
        <ele>300.549000</ele>
        <time>2009-02-19T22:20:08Z</time>
      </trkpt>
      <trkpt lat="50.756543" lon="6.374065">
        <ele>305.356000</ele>
        <time>2009-02-19T22:20:56Z</time>
      </trkpt>
      <trkpt lat="50.756776" lon="6.374278">
        <ele>304.875000</ele>
        <time>2009-02-19T22:21:16Z</time>
      </trkpt>
      <trkpt lat="50.756977" lon="6.374073">
        <ele>307.279000</ele>
        <time>2009-02-19T22:21:33Z</time>
      </trkpt>
      <trkpt lat="50.757012" lon="6.373850">
        <ele>307.759000</ele>
        <time>2009-02-19T22:21:44Z</time>
      </trkpt>
      <trkpt lat="50.756962" lon="6.372910">
        <ele>307.279000</ele>
        <time>2009-02-19T22:22:27Z</time>
      </trkpt>
      <trkpt lat="50.756858" lon="6.372181">
        <ele>306.317000</ele>
        <time>2009-02-19T22:23:01Z</time>
      </trkpt>
      <trkpt lat="50.756870" lon="6.371389">
        <ele>307.759000</ele>
        <time>2009-02-19T22:23:37Z</time>
      </trkpt>
      <trkpt lat="50.756735" lon="6.370562">
        <ele>308.240000</ele>
        <time>2009-02-19T22:24:16Z</time>
      </trkpt>
      <trkpt lat="50.756657" lon="6.369482">
        <ele>307.759000</ele>
        <time>2009-02-19T22:25:05Z</time>
      </trkpt>
      <trkpt lat="50.756534" lon="6.368635">
        <ele>311.604000</ele>
        <time>2009-02-19T22:25:45Z</time>
      </trkpt>
      <trkpt lat="50.756553" lon="6.367827">
        <ele>315.450000</ele>
        <time>2009-02-19T22:26:21Z</time>
      </trkpt>
      <trkpt lat="50.756677" lon="6.367379">
        <ele>319.295000</ele>
        <time>2009-02-19T22:26:44Z</time>
      </trkpt>
      <trkpt lat="50.757140" lon="6.366953">
        <ele>320.737000</ele>
        <time>2009-02-19T22:27:22Z</time>
      </trkpt>
      <trkpt lat="50.757300" lon="6.366760">
        <ele>317.853000</ele>
        <time>2009-02-19T22:27:37Z</time>
      </trkpt>
      <trkpt lat="50.757459" lon="6.366561">
        <ele>313.047000</ele>
        <time>2009-02-19T22:27:51Z</time>
      </trkpt>
      <trkpt lat="50.757615" lon="6.366399">
        <ele>309.682000</ele>
        <time>2009-02-19T22:28:05Z</time>
      </trkpt>
      <trkpt lat="50.757714" lon="6.366390">
        <ele>309.682000</ele>
        <time>2009-02-19T22:28:12Z</time>
      </trkpt>
      <trkpt lat="50.757836" lon="6.366283">
        <ele>308.720000</ele>
        <time>2009-02-19T22:28:22Z</time>
      </trkpt>
      <trkpt lat="50.758218" lon="6.365924">
        <ele>303.914000</ele>
        <time>2009-02-19T22:28:54Z</time>
      </trkpt>
      <trkpt lat="50.758475" lon="6.365776">
        <ele>298.146000</ele>
        <time>2009-02-19T22:29:14Z</time>
      </trkpt>
      <trkpt lat="50.758695" lon="6.365514">
        <ele>299.588000</ele>
        <time>2009-02-19T22:29:34Z</time>
      </trkpt>
      <trkpt lat="50.758720" lon="6.364911">
        <ele>304.395000</ele>
        <time>2009-02-19T22:30:01Z</time>
      </trkpt>
      <trkpt lat="50.758817" lon="6.364339">
        <ele>307.759000</ele>
        <time>2009-02-19T22:30:28Z</time>
      </trkpt>
      <trkpt lat="50.758863" lon="6.363876">
        <ele>311.124000</ele>
        <time>2009-02-19T22:30:49Z</time>
      </trkpt>
      <trkpt lat="50.759245" lon="6.363454">
        <ele>314.969000</ele>
        <time>2009-02-19T22:31:23Z</time>
      </trkpt>
      <trkpt lat="50.759504" lon="6.363192">
        <ele>317.372000</ele>
        <time>2009-02-19T22:31:45Z</time>
      </trkpt>
      <trkpt lat="50.759645" lon="6.362842">
        <ele>318.814000</ele>
        <time>2009-02-19T22:32:04Z</time>
      </trkpt>
      <trkpt lat="50.759943" lon="6.362527">
        <ele>319.776000</ele>
        <time>2009-02-19T22:32:30Z</time>
      </trkpt>
      <trkpt lat="50.760496" lon="6.361800">
        <ele>318.334000</ele>
        <time>2009-02-19T22:33:22Z</time>
      </trkpt>
      <trkpt lat="50.760556" lon="6.361656">
        <ele>317.853000</ele>
        <time>2009-02-19T22:33:30Z</time>
      </trkpt>
      <trkpt lat="50.760853" lon="6.361101">
        <ele>314.488000</ele>
        <time>2009-02-19T22:34:03Z</time>
      </trkpt>
      <trkpt lat="50.760937" lon="6.360531">
        <ele>310.643000</ele>
        <time>2009-02-19T22:34:29Z</time>
      </trkpt>
      <trkpt lat="50.760954" lon="6.360201">
        <ele>309.682000</ele>
        <time>2009-02-19T22:34:44Z</time>
      </trkpt>
      <trkpt lat="50.761098" lon="6.359940">
        <ele>312.085000</ele>
        <time>2009-02-19T22:35:00Z</time>
      </trkpt>
      <trkpt lat="50.761518" lon="6.360222">
        <ele>314.488000</ele>
        <time>2009-02-19T22:35:33Z</time>
      </trkpt>
      <trkpt lat="50.761805" lon="6.360320">
        <ele>315.450000</ele>
        <time>2009-02-19T22:35:54Z</time>
      </trkpt>
      <trkpt lat="50.762055" lon="6.360406">
        <ele>315.450000</ele>
        <time>2009-02-19T22:36:13Z</time>
      </trkpt>
      <trkpt lat="50.762339" lon="6.360534">
        <ele>314.969000</ele>
        <time>2009-02-19T22:36:34Z</time>
      </trkpt>
      <trkpt lat="50.762660" lon="6.360515">
        <ele>314.488000</ele>
        <time>2009-02-19T22:36:57Z</time>
      </trkpt>
      <trkpt lat="50.762760" lon="6.360188">
        <ele>313.047000</ele>
        <time>2009-02-19T22:37:14Z</time>
      </trkpt>
      <trkpt lat="50.762922" lon="6.359442">
        <ele>310.643000</ele>
        <time>2009-02-19T22:37:49Z</time>
      </trkpt>
      <trkpt lat="50.762936" lon="6.359261">
        <ele>309.682000</ele>
        <time>2009-02-19T22:37:58Z</time>
      </trkpt>
      <trkpt lat="50.763094" lon="6.358698">
        <ele>306.798000</ele>
        <time>2009-02-19T22:38:26Z</time>
      </trkpt>
      <trkpt lat="50.763309" lon="6.357974">
        <ele>302.953000</ele>
        <time>2009-02-19T22:39:02Z</time>
      </trkpt>
      <trkpt lat="50.763556" lon="6.357340">
        <ele>299.588000</ele>
        <time>2009-02-19T22:39:36Z</time>
      </trkpt>
      <trkpt lat="50.763700" lon="6.356462">
        <ele>298.146000</ele>
        <time>2009-02-19T22:40:17Z</time>
      </trkpt>
      <trkpt lat="50.763775" lon="6.355487">
        <ele>298.146000</ele>
        <time>2009-02-19T22:41:02Z</time>
      </trkpt>
      <trkpt lat="50.763794" lon="6.354356">
        <ele>297.665000</ele>
        <time>2009-02-19T22:41:54Z</time>
      </trkpt>
      <trkpt lat="50.763760" lon="6.353668">
        <ele>295.262000</ele>
        <time>2009-02-19T22:42:25Z</time>
      </trkpt>
      <trkpt lat="50.763123" lon="6.351949">
        <ele>292.859000</ele>
        <time>2009-02-19T22:43:56Z</time>
      </trkpt>
      <trkpt lat="50.763122" lon="6.351755">
        <ele>292.378000</ele>
        <time>2009-02-19T22:44:05Z</time>
      </trkpt>
      <trkpt lat="50.763900" lon="6.350582">
        <ele>290.936000</ele>
        <time>2009-02-19T22:45:22Z</time>
      </trkpt>
      <trkpt lat="50.764823" lon="6.346975">
        <ele>290.936000</ele>
        <time>2009-02-19T22:48:19Z</time>
      </trkpt>
      <trkpt lat="50.764999" lon="6.345779">
        <ele>288.052000</ele>
        <time>2009-02-19T22:49:15Z</time>
      </trkpt>
      <trkpt lat="50.764033" lon="6.343038">
        <ele>281.804000</ele>
        <time>2009-02-19T22:51:38Z</time>
      </trkpt>
      <trkpt lat="50.763400" lon="6.343456">
        <ele>285.649000</ele>
        <time>2009-02-19T22:52:28Z</time>
      </trkpt>
      <trkpt lat="50.762639" lon="6.343943">
        <ele>285.168000</ele>
        <time>2009-02-19T22:53:27Z</time>
      </trkpt>
      <trkpt lat="50.761915" lon="6.344562">
        <ele>285.168000</ele>
        <time>2009-02-19T22:54:26Z</time>
      </trkpt>
      <trkpt lat="50.761262" lon="6.345017">
        <ele>286.610000</ele>
        <time>2009-02-19T22:55:17Z</time>
      </trkpt>
      <trkpt lat="50.761113" lon="6.344766">
        <ele>284.207000</ele>
        <time>2009-02-19T22:55:33Z</time>
      </trkpt>
      <trkpt lat="50.761049" lon="6.344597">
        <ele>284.207000</ele>
        <time>2009-02-19T22:55:42Z</time>
      </trkpt>
      <trkpt lat="50.760764" lon="6.343848">
        <ele>279.881000</ele>
        <time>2009-02-19T22:56:22Z</time>
      </trkpt>
      <trkpt lat="50.760456" lon="6.342958">
        <ele>279.400000</ele>
        <time>2009-02-19T22:57:08Z</time>
      </trkpt>
      <trkpt lat="50.760324" lon="6.342690">
        <ele>280.362000</ele>
        <time>2009-02-19T22:57:23Z</time>
      </trkpt>
      <trkpt lat="50.760130" lon="6.342615">
        <ele>279.400000</ele>
        <time>2009-02-19T22:57:38Z</time>
      </trkpt>
      <trkpt lat="50.759518" lon="6.343095">
        <ele>276.036000</ele>
        <time>2009-02-19T22:58:27Z</time>
      </trkpt>
      <trkpt lat="50.758576" lon="6.343205">
        <ele>273.152000</ele>
        <time>2009-02-19T22:59:35Z</time>
      </trkpt>
      <trkpt lat="50.757687" lon="6.342977">
        <ele>270.268000</ele>
        <time>2009-02-19T23:00:40Z</time>
      </trkpt>
      <trkpt lat="50.757507" lon="6.342876">
        <ele>269.787000</ele>
        <time>2009-02-19T23:00:54Z</time>
      </trkpt>
      <trkpt lat="50.757141" lon="6.342549">
        <ele>269.307000</ele>
        <time>2009-02-19T23:01:24Z</time>
      </trkpt>
      <trkpt lat="50.756987" lon="6.342684">
        <ele>268.345000</ele>
        <time>2009-02-19T23:01:37Z</time>
      </trkpt>
      <trkpt lat="50.756717" lon="6.342664">
        <ele>265.942000</ele>
        <time>2009-02-19T23:01:56Z</time>
      </trkpt>
      <trkpt lat="50.756544" lon="6.342415">
        <ele>264.019000</ele>
        <time>2009-02-19T23:02:13Z</time>
      </trkpt>
      <trkpt lat="50.756441" lon="6.342132">
        <ele>259.693000</ele>
        <time>2009-02-19T23:02:28Z</time>
      </trkpt>
      <trkpt lat="50.756335" lon="6.341841">
        <ele>256.809000</ele>
        <time>2009-02-19T23:02:43Z</time>
      </trkpt>
      <trkpt lat="50.756302" lon="6.341675">
        <ele>256.809000</ele>
        <time>2009-02-19T23:02:51Z</time>
      </trkpt>
      <trkpt lat="50.756076" lon="6.341368">
        <ele>256.809000</ele>
        <time>2009-02-19T23:03:12Z</time>
      </trkpt>
      <trkpt lat="50.755838" lon="6.341093">
        <ele>256.329000</ele>
        <time>2009-02-19T23:03:34Z</time>
      </trkpt>
      <trkpt lat="50.755699" lon="6.340874">
        <ele>256.329000</ele>
        <time>2009-02-19T23:03:48Z</time>
      </trkpt>
      <trkpt lat="50.755007" lon="6.340048">
        <ele>256.809000</ele>
        <time>2009-02-19T23:04:50Z</time>
      </trkpt>
      <trkpt lat="50.754101" lon="6.338891">
        <ele>256.809000</ele>
        <time>2009-02-19T23:06:14Z</time>
      </trkpt>
      <trkpt lat="50.753276" lon="6.337772">
        <ele>256.329000</ele>
        <time>2009-02-19T23:07:32Z</time>
      </trkpt>
      <trkpt lat="50.753212" lon="6.337453">
        <ele>255.848000</ele>
        <time>2009-02-19T23:07:48Z</time>
      </trkpt>
      <trkpt lat="50.752903" lon="6.336009">
        <ele>255.367000</ele>
        <time>2009-02-19T23:08:57Z</time>
      </trkpt>
      <trkpt lat="50.752708" lon="6.334979">
        <ele>252.964000</ele>
        <time>2009-02-19T23:09:46Z</time>
      </trkpt>
      <trkpt lat="50.752106" lon="6.332708">
        <ele>253.925000</ele>
        <time>2009-02-19T23:11:38Z</time>
      </trkpt>
      <trkpt lat="50.752000" lon="6.332677">
        <ele>254.887000</ele>
        <time>2009-02-19T23:11:46Z</time>
      </trkpt>
      <trkpt lat="50.751535" lon="6.333018">
        <ele>265.942000</ele>
        <time>2009-02-19T23:12:23Z</time>
      </trkpt>
      <trkpt lat="50.751334" lon="6.333197">
        <ele>269.307000</ele>
        <time>2009-02-19T23:12:40Z</time>
      </trkpt>
      <trkpt lat="50.750097" lon="6.334054">
        <ele>286.130000</ele>
        <time>2009-02-19T23:14:17Z</time>
      </trkpt>
      <trkpt lat="50.749893" lon="6.334166">
        <ele>286.610000</ele>
        <time>2009-02-19T23:14:32Z</time>
      </trkpt>
      <trkpt lat="50.749342" lon="6.334111">
        <ele>288.052000</ele>
        <time>2009-02-19T23:15:12Z</time>
      </trkpt>
      <trkpt lat="50.749150" lon="6.333848">
        <ele>290.936000</ele>
        <time>2009-02-19T23:15:30Z</time>
      </trkpt>
      <trkpt lat="50.746634" lon="6.328940">
        <ele>306.317000</ele>
        <time>2009-02-19T23:20:18Z</time>
      </trkpt>
      <trkpt lat="50.746206" lon="6.328029">
        <ele>306.798000</ele>
        <time>2009-02-19T23:21:10Z</time>
      </trkpt>
      <trkpt lat="50.745906" lon="6.327351">
        <ele>307.279000</ele>
        <time>2009-02-19T23:21:48Z</time>
      </trkpt>
      <trkpt lat="50.745944" lon="6.326660">
        <ele>305.837000</ele>
        <time>2009-02-19T23:22:19Z</time>
      </trkpt>
      <trkpt lat="50.746027" lon="6.325338">
        <ele>304.875000</ele>
        <time>2009-02-19T23:23:20Z</time>
      </trkpt>
      <trkpt lat="50.746119" lon="6.324147">
        <ele>305.356000</ele>
        <time>2009-02-19T23:24:14Z</time>
      </trkpt>
      <trkpt lat="50.746284" lon="6.323697">
        <ele>305.837000</ele>
        <time>2009-02-19T23:24:38Z</time>
      </trkpt>
      <trkpt lat="50.746708" lon="6.322663">
        <ele>307.279000</ele>
        <time>2009-02-19T23:25:34Z</time>
      </trkpt>
      <trkpt lat="50.747185" lon="6.321451">
        <ele>303.914000</ele>
        <time>2009-02-19T23:26:39Z</time>
      </trkpt>
      <trkpt lat="50.747086" lon="6.321424">
        <ele>304.875000</ele>
        <time>2009-02-19T23:26:46Z</time>
      </trkpt>
      <trkpt lat="50.746933" lon="6.321634">
        <ele>306.317000</ele>
        <time>2009-02-19T23:27:01Z</time>
      </trkpt>
      <trkpt lat="50.746329" lon="6.322443">
        <ele>308.240000</ele>
        <time>2009-02-19T23:27:58Z</time>
      </trkpt>
      <trkpt lat="50.746041" lon="6.322498">
        <ele>307.759000</ele>
        <time>2009-02-19T23:28:19Z</time>
      </trkpt>
      <trkpt lat="50.745699" lon="6.322128">
        <ele>305.837000</ele>
        <time>2009-02-19T23:28:49Z</time>
      </trkpt>
      <trkpt lat="50.745393" lon="6.321856">
        <ele>305.356000</ele>
        <time>2009-02-19T23:29:14Z</time>
      </trkpt>
      <trkpt lat="50.745013" lon="6.321315">
        <ele>305.356000</ele>
        <time>2009-02-19T23:29:51Z</time>
      </trkpt>
      <trkpt lat="50.744884" lon="6.320989">
        <ele>304.875000</ele>
        <time>2009-02-19T23:30:09Z</time>
      </trkpt>
      <trkpt lat="50.744517" lon="6.319523">
        <ele>304.395000</ele>
        <time>2009-02-19T23:31:20Z</time>
      </trkpt>
      <trkpt lat="50.744113" lon="6.318874">
        <ele>305.356000</ele>
        <time>2009-02-19T23:32:02Z</time>
      </trkpt>
      <trkpt lat="50.743775" lon="6.318648">
        <ele>304.395000</ele>
        <time>2009-02-19T23:32:28Z</time>
      </trkpt>
      <trkpt lat="50.742969" lon="6.318392">
        <ele>297.665000</ele>
        <time>2009-02-19T23:33:27Z</time>
      </trkpt>
      <trkpt lat="50.742099" lon="6.318377">
        <ele>289.975000</ele>
        <time>2009-02-19T23:34:30Z</time>
      </trkpt>
      <trkpt lat="50.741595" lon="6.318591">
        <ele>286.130000</ele>
        <time>2009-02-19T23:35:08Z</time>
      </trkpt>
      <trkpt lat="50.741333" lon="6.318629">
        <ele>285.168000</ele>
        <time>2009-02-19T23:35:27Z</time>
      </trkpt>
      <trkpt lat="50.741148" lon="6.318581">
        <ele>283.726000</ele>
        <time>2009-02-19T23:35:40Z</time>
      </trkpt>
      <trkpt lat="50.740364" lon="6.318464">
        <ele>288.533000</ele>
        <time>2009-02-19T23:36:37Z</time>
      </trkpt>
      <trkpt lat="50.740024" lon="6.318570">
        <ele>291.897000</ele>
        <time>2009-02-19T23:37:02Z</time>
      </trkpt>
      <trkpt lat="50.739683" lon="6.318681">
        <ele>293.820000</ele>
        <time>2009-02-19T23:37:27Z</time>
      </trkpt>
      <trkpt lat="50.739002" lon="6.318780">
        <ele>296.704000</ele>
        <time>2009-02-19T23:38:16Z</time>
      </trkpt>
      <trkpt lat="50.738217" lon="6.318612">
        <ele>301.991000</ele>
        <time>2009-02-19T23:39:13Z</time>
      </trkpt>
      <trkpt lat="50.737604" lon="6.318498">
        <ele>307.759000</ele>
        <time>2009-02-19T23:39:58Z</time>
      </trkpt>
      <trkpt lat="50.736994" lon="6.318025">
        <ele>313.047000</ele>
        <time>2009-02-19T23:40:46Z</time>
      </trkpt>
      <trkpt lat="50.736918" lon="6.317940">
        <ele>313.047000</ele>
        <time>2009-02-19T23:40:53Z</time>
      </trkpt>
      <trkpt lat="50.736343" lon="6.317602">
        <ele>316.411000</ele>
        <time>2009-02-19T23:41:37Z</time>
      </trkpt>
      <trkpt lat="50.736043" lon="6.317630">
        <ele>315.930000</ele>
        <time>2009-02-19T23:41:59Z</time>
      </trkpt>
      <trkpt lat="50.735740" lon="6.317738">
        <ele>314.969000</ele>
        <time>2009-02-19T23:42:21Z</time>
      </trkpt>
      <trkpt lat="50.734762" lon="6.319322">
        <ele>300.069000</ele>
        <time>2009-02-19T23:44:02Z</time>
      </trkpt>
      <trkpt lat="50.734425" lon="6.319406">
        <ele>296.704000</ele>
        <time>2009-02-19T23:44:27Z</time>
      </trkpt>
      <trkpt lat="50.734016" lon="6.319678">
        <ele>291.897000</ele>
        <time>2009-02-19T23:44:59Z</time>
      </trkpt>
      <trkpt lat="50.734062" lon="6.321263">
        <ele>283.246000</ele>
        <time>2009-02-19T23:46:11Z</time>
      </trkpt>
      <trkpt lat="50.734152" lon="6.321818">
        <ele>279.881000</ele>
        <time>2009-02-19T23:46:37Z</time>
      </trkpt>
      <trkpt lat="50.734230" lon="6.322373">
        <ele>276.516000</ele>
        <time>2009-02-19T23:47:03Z</time>
      </trkpt>
      <trkpt lat="50.734578" lon="6.322973">
        <ele>271.710000</ele>
        <time>2009-02-19T23:47:40Z</time>
      </trkpt>
      <trkpt lat="50.734725" lon="6.323490">
        <ele>269.307000</ele>
        <time>2009-02-19T23:48:06Z</time>
      </trkpt>
      <trkpt lat="50.734704" lon="6.324483">
        <ele>265.461000</ele>
        <time>2009-02-19T23:48:51Z</time>
      </trkpt>
      <trkpt lat="50.734579" lon="6.325113">
        <ele>261.616000</ele>
        <time>2009-02-19T23:49:21Z</time>
      </trkpt>
      <trkpt lat="50.734464" lon="6.325133">
        <ele>261.616000</ele>
        <time>2009-02-19T23:49:30Z</time>
      </trkpt>
      <trkpt lat="50.733813" lon="6.325000">
        <ele>263.058000</ele>
        <time>2009-02-19T23:50:17Z</time>
      </trkpt>
      <trkpt lat="50.733556" lon="6.325009">
        <ele>263.058000</ele>
        <time>2009-02-19T23:50:35Z</time>
      </trkpt>
      <trkpt lat="50.733454" lon="6.324940">
        <ele>264.019000</ele>
        <time>2009-02-19T23:50:43Z</time>
      </trkpt>
      <trkpt lat="50.733258" lon="6.324824">
        <ele>263.539000</ele>
        <time>2009-02-19T23:50:59Z</time>
      </trkpt>
      <trkpt lat="50.733037" lon="6.324799">
        <ele>265.461000</ele>
        <time>2009-02-19T23:51:14Z</time>
      </trkpt>
      <trkpt lat="50.732930" lon="6.324802">
        <ele>265.461000</ele>
        <time>2009-02-19T23:51:22Z</time>
      </trkpt>
      <trkpt lat="50.732225" lon="6.324476">
        <ele>267.865000</ele>
        <time>2009-02-19T23:52:15Z</time>
      </trkpt>
      <trkpt lat="50.731502" lon="6.324313">
        <ele>270.268000</ele>
        <time>2009-02-19T23:53:08Z</time>
      </trkpt>
      <trkpt lat="50.731337" lon="6.324268">
        <ele>270.748000</ele>
        <time>2009-02-19T23:53:20Z</time>
      </trkpt>
      <trkpt lat="50.731043" lon="6.324361">
        <ele>271.710000</ele>
        <time>2009-02-19T23:53:41Z</time>
      </trkpt>
      <trkpt lat="50.730907" lon="6.324326">
        <ele>271.710000</ele>
        <time>2009-02-19T23:53:51Z</time>
      </trkpt>
      <trkpt lat="50.730515" lon="6.324164">
        <ele>273.152000</ele>
        <time>2009-02-19T23:54:20Z</time>
      </trkpt>
      <trkpt lat="50.730533" lon="6.324308">
        <ele>273.152000</ele>
        <time>2009-02-19T23:54:27Z</time>
      </trkpt>
      <trkpt lat="50.730726" lon="6.324696">
        <ele>271.710000</ele>
        <time>2009-02-19T23:54:50Z</time>
      </trkpt>
      <trkpt lat="50.731214" lon="6.325374">
        <ele>275.555000</ele>
        <time>2009-02-19T23:55:36Z</time>
      </trkpt>
      <trkpt lat="50.731499" lon="6.325526">
        <ele>277.478000</ele>
        <time>2009-02-19T23:55:58Z</time>
      </trkpt>
      <trkpt lat="50.731708" lon="6.325713">
        <ele>278.920000</ele>
        <time>2009-02-19T23:56:15Z</time>
      </trkpt>
      <trkpt lat="50.732024" lon="6.326061">
        <ele>284.688000</ele>
        <time>2009-02-19T23:56:43Z</time>
      </trkpt>
      <trkpt lat="50.732160" lon="6.326088">
        <ele>287.091000</ele>
        <time>2009-02-19T23:56:53Z</time>
      </trkpt>
      <trkpt lat="50.732760" lon="6.326271">
        <ele>289.014000</ele>
        <time>2009-02-19T23:57:37Z</time>
      </trkpt>
      <trkpt lat="50.733334" lon="6.326898">
        <ele>294.301000</ele>
        <time>2009-02-19T23:58:27Z</time>
      </trkpt>
      <trkpt lat="50.733404" lon="6.327413">
        <ele>296.224000</ele>
        <time>2009-02-19T23:58:51Z</time>
      </trkpt>
      <trkpt lat="50.733160" lon="6.328143">
        <ele>299.107000</ele>
        <time>2009-02-19T23:59:29Z</time>
      </trkpt>
      <trkpt lat="50.733046" lon="6.328239">
        <ele>301.030000</ele>
        <time>2009-02-19T23:59:38Z</time>
      </trkpt>
      <trkpt lat="50.732216" lon="6.329747">
        <ele>320.256000</ele>
        <time>2009-02-20T00:01:09Z</time>
      </trkpt>
      <trkpt lat="50.732065" lon="6.330463">
        <ele>325.063000</ele>
        <time>2009-02-20T00:01:44Z</time>
      </trkpt>
      <trkpt lat="50.731623" lon="6.331199">
        <ele>326.505000</ele>
        <time>2009-02-20T00:02:30Z</time>
      </trkpt>
      <trkpt lat="50.731205" lon="6.331319">
        <ele>322.660000</ele>
        <time>2009-02-20T00:03:00Z</time>
      </trkpt>
      <trkpt lat="50.731123" lon="6.331351">
        <ele>322.660000</ele>
        <time>2009-02-20T00:03:07Z</time>
      </trkpt>
      <trkpt lat="50.730807" lon="6.331059">
        <ele>321.698000</ele>
        <time>2009-02-20T00:03:33Z</time>
      </trkpt>
      <trkpt lat="50.730580" lon="6.331218">
        <ele>321.698000</ele>
        <time>2009-02-20T00:03:51Z</time>
      </trkpt>
      <trkpt lat="50.730604" lon="6.331410">
        <ele>322.660000</ele>
        <time>2009-02-20T00:04:00Z</time>
      </trkpt>
      <trkpt lat="50.730434" lon="6.331820">
        <ele>325.063000</ele>
        <time>2009-02-20T00:04:22Z</time>
      </trkpt>
      <trkpt lat="50.730218" lon="6.332141">
        <ele>329.389000</ele>
        <time>2009-02-20T00:04:43Z</time>
      </trkpt>
      <trkpt lat="50.730051" lon="6.332386">
        <ele>332.754000</ele>
        <time>2009-02-20T00:05:00Z</time>
      </trkpt>
      <trkpt lat="50.729761" lon="6.332954">
        <ele>336.599000</ele>
        <time>2009-02-20T00:05:33Z</time>
      </trkpt>
      <trkpt lat="50.729649" lon="6.333227">
        <ele>336.599000</ele>
        <time>2009-02-20T00:05:48Z</time>
      </trkpt>
      <trkpt lat="50.728932" lon="6.336411">
        <ele>338.041000</ele>
        <time>2009-02-20T00:08:22Z</time>
      </trkpt>
      <trkpt lat="50.728959" lon="6.336798">
        <ele>338.041000</ele>
        <time>2009-02-20T00:08:40Z</time>
      </trkpt>
      <trkpt lat="50.729317" lon="6.339958">
        <ele>325.063000</ele>
        <time>2009-02-20T00:11:06Z</time>
      </trkpt>
      <trkpt lat="50.729232" lon="6.340281">
        <ele>324.102000</ele>
        <time>2009-02-20T00:11:22Z</time>
      </trkpt>
      <trkpt lat="50.729103" lon="6.340783">
        <ele>320.737000</ele>
        <time>2009-02-20T00:11:47Z</time>
      </trkpt>
      <trkpt lat="50.729014" lon="6.341145">
        <ele>318.814000</ele>
        <time>2009-02-20T00:12:04Z</time>
      </trkpt>
      <trkpt lat="50.728915" lon="6.341883">
        <ele>313.527000</ele>
        <time>2009-02-20T00:12:39Z</time>
      </trkpt>
      <trkpt lat="50.728810" lon="6.344657">
        <ele>297.665000</ele>
        <time>2009-02-20T00:14:45Z</time>
      </trkpt>
      <trkpt lat="50.728395" lon="6.344793">
        <ele>289.494000</ele>
        <time>2009-02-20T00:15:16Z</time>
      </trkpt>
      <trkpt lat="50.728148" lon="6.344757">
        <ele>286.130000</ele>
        <time>2009-02-20T00:15:34Z</time>
      </trkpt>
      <trkpt lat="50.727923" lon="6.344819">
        <ele>281.804000</ele>
        <time>2009-02-20T00:15:50Z</time>
      </trkpt>
      <trkpt lat="50.727116" lon="6.344976">
        <ele>271.229000</ele>
        <time>2009-02-20T00:16:49Z</time>
      </trkpt>
      <trkpt lat="50.726928" lon="6.345088">
        <ele>265.942000</ele>
        <time>2009-02-20T00:17:03Z</time>
      </trkpt>
      <trkpt lat="50.726832" lon="6.345311">
        <ele>263.539000</ele>
        <time>2009-02-20T00:17:16Z</time>
      </trkpt>
      <trkpt lat="50.726983" lon="6.345364">
        <ele>263.539000</ele>
        <time>2009-02-20T00:17:27Z</time>
      </trkpt>
      <trkpt lat="50.727196" lon="6.345732">
        <ele>262.577000</ele>
        <time>2009-02-20T00:17:49Z</time>
      </trkpt>
      <trkpt lat="50.727248" lon="6.346465">
        <ele>264.500000</ele>
        <time>2009-02-20T00:18:23Z</time>
      </trkpt>
      <trkpt lat="50.727130" lon="6.346735">
        <ele>265.461000</ele>
        <time>2009-02-20T00:18:38Z</time>
      </trkpt>
      <trkpt lat="50.726678" lon="6.347332">
        <ele>268.826000</ele>
        <time>2009-02-20T00:19:20Z</time>
      </trkpt>
      <trkpt lat="50.726294" lon="6.347955">
        <ele>271.710000</ele>
        <time>2009-02-20T00:20:00Z</time>
      </trkpt>
      <trkpt lat="50.725465" lon="6.349760">
        <ele>276.997000</ele>
        <time>2009-02-20T00:21:42Z</time>
      </trkpt>
      <trkpt lat="50.725386" lon="6.353139">
        <ele>284.688000</ele>
        <time>2009-02-20T00:24:16Z</time>
      </trkpt>
      <trkpt lat="50.725117" lon="6.353689">
        <ele>287.091000</ele>
        <time>2009-02-20T00:24:47Z</time>
      </trkpt>
      <trkpt lat="50.725018" lon="6.353813">
        <ele>288.533000</ele>
        <time>2009-02-20T00:24:57Z</time>
      </trkpt>
      <trkpt lat="50.725026" lon="6.353831">
        <ele>289.014000</ele>
        <time>2009-02-20T00:24:58Z</time>
      </trkpt>
      <trkpt lat="50.725188" lon="6.353585">
        <ele>289.494000</ele>
        <time>2009-02-20T00:25:14Z</time>
      </trkpt>
      <trkpt lat="50.725397" lon="6.353392">
        <ele>290.936000</ele>
        <time>2009-02-20T00:25:31Z</time>
      </trkpt>
      <trkpt lat="50.725567" lon="6.353016">
        <ele>292.378000</ele>
        <time>2009-02-20T00:25:52Z</time>
      </trkpt>
      <trkpt lat="50.725609" lon="6.351934">
        <ele>296.704000</ele>
        <time>2009-02-20T00:26:42Z</time>
      </trkpt>
      <trkpt lat="50.725680" lon="6.351465">
        <ele>298.146000</ele>
        <time>2009-02-20T00:27:04Z</time>
      </trkpt>
      <trkpt lat="50.725653" lon="6.351024">
        <ele>298.627000</ele>
        <time>2009-02-20T00:27:24Z</time>
      </trkpt>
      <trkpt lat="50.725599" lon="6.350587">
        <ele>299.107000</ele>
        <time>2009-02-20T00:27:44Z</time>
      </trkpt>
      <trkpt lat="50.725684" lon="6.350106">
        <ele>301.991000</ele>
        <time>2009-02-20T00:28:07Z</time>
      </trkpt>
      <trkpt lat="50.725724" lon="6.349968">
        <ele>301.991000</ele>
        <time>2009-02-20T00:28:14Z</time>
      </trkpt>
      <trkpt lat="50.725959" lon="6.349676">
        <ele>303.433000</ele>
        <time>2009-02-20T00:28:35Z</time>
      </trkpt>
      <trkpt lat="50.726652" lon="6.349427">
        <ele>307.279000</ele>
        <time>2009-02-20T00:29:27Z</time>
      </trkpt>
      <trkpt lat="50.727210" lon="6.349276">
        <ele>310.643000</ele>
        <time>2009-02-20T00:30:07Z</time>
      </trkpt>
      <trkpt lat="50.727515" lon="6.349247">
        <ele>311.604000</ele>
        <time>2009-02-20T00:30:29Z</time>
      </trkpt>
      <trkpt lat="50.728097" lon="6.349929">
        <ele>311.124000</ele>
        <time>2009-02-20T00:31:21Z</time>
      </trkpt>
      <trkpt lat="50.728380" lon="6.350381">
        <ele>311.124000</ele>
        <time>2009-02-20T00:31:50Z</time>
      </trkpt>
      <trkpt lat="50.729137" lon="6.350871">
        <ele>312.085000</ele>
        <time>2009-02-20T00:32:49Z</time>
      </trkpt>
      <trkpt lat="50.729230" lon="6.350932">
        <ele>312.085000</ele>
        <time>2009-02-20T00:32:57Z</time>
      </trkpt>
      <trkpt lat="50.729464" lon="6.350838">
        <ele>313.047000</ele>
        <time>2009-02-20T00:33:14Z</time>
      </trkpt>
      <trkpt lat="50.729797" lon="6.350519">
        <ele>315.450000</ele>
        <time>2009-02-20T00:33:42Z</time>
      </trkpt>
      <trkpt lat="50.729882" lon="6.350209">
        <ele>316.892000</ele>
        <time>2009-02-20T00:33:57Z</time>
      </trkpt>
      <trkpt lat="50.730064" lon="6.349444">
        <ele>321.218000</ele>
        <time>2009-02-20T00:34:35Z</time>
      </trkpt>
      <trkpt lat="50.730360" lon="6.349020">
        <ele>323.621000</ele>
        <time>2009-02-20T00:35:03Z</time>
      </trkpt>
      <trkpt lat="50.731012" lon="6.349171">
        <ele>322.179000</ele>
        <time>2009-02-20T00:35:51Z</time>
      </trkpt>
      <trkpt lat="50.731755" lon="6.349667">
        <ele>319.295000</ele>
        <time>2009-02-20T00:36:49Z</time>
      </trkpt>
      <trkpt lat="50.731837" lon="6.349765">
        <ele>319.295000</ele>
        <time>2009-02-20T00:36:56Z</time>
      </trkpt>
      <trkpt lat="50.732354" lon="6.350447">
        <ele>317.372000</ele>
        <time>2009-02-20T00:37:45Z</time>
      </trkpt>
      <trkpt lat="50.732728" lon="6.351268">
        <ele>316.411000</ele>
        <time>2009-02-20T00:38:31Z</time>
      </trkpt>
      <trkpt lat="50.732827" lon="6.351720">
        <ele>315.450000</ele>
        <time>2009-02-20T00:38:53Z</time>
      </trkpt>
      <trkpt lat="50.732758" lon="6.352073">
        <ele>314.969000</ele>
        <time>2009-02-20T00:39:10Z</time>
      </trkpt>
      <trkpt lat="50.732602" lon="6.352353">
        <ele>314.008000</ele>
        <time>2009-02-20T00:39:27Z</time>
      </trkpt>
      <trkpt lat="50.732346" lon="6.352634">
        <ele>313.527000</ele>
        <time>2009-02-20T00:39:49Z</time>
      </trkpt>
      <trkpt lat="50.732301" lon="6.353019">
        <ele>313.527000</ele>
        <time>2009-02-20T00:40:07Z</time>
      </trkpt>
      <trkpt lat="50.732261" lon="6.353837">
        <ele>313.047000</ele>
        <time>2009-02-20T00:40:44Z</time>
      </trkpt>
      <trkpt lat="50.732434" lon="6.353861">
        <ele>314.488000</ele>
        <time>2009-02-20T00:40:57Z</time>
      </trkpt>
      <trkpt lat="50.733082" lon="6.354035">
        <ele>316.411000</ele>
        <time>2009-02-20T00:41:44Z</time>
      </trkpt>
      <trkpt lat="50.733363" lon="6.355135">
        <ele>321.698000</ele>
        <time>2009-02-20T00:42:38Z</time>
      </trkpt>
      <trkpt lat="50.733359" lon="6.357972">
        <ele>327.466000</ele>
        <time>2009-02-20T00:44:48Z</time>
      </trkpt>
      <trkpt lat="50.733352" lon="6.358382">
        <ele>327.947000</ele>
        <time>2009-02-20T00:45:06Z</time>
      </trkpt>
      <trkpt lat="50.734063" lon="6.359673">
        <ele>328.428000</ele>
        <time>2009-02-20T00:46:24Z</time>
      </trkpt>
      <trkpt lat="50.734114" lon="6.361751">
        <ele>328.908000</ele>
        <time>2009-02-20T00:47:59Z</time>
      </trkpt>
      <trkpt lat="50.733773" lon="6.362919">
        <ele>329.870000</ele>
        <time>2009-02-20T00:48:58Z</time>
      </trkpt>
      <trkpt lat="50.733643" lon="6.362671">
        <ele>330.831000</ele>
        <time>2009-02-20T00:49:12Z</time>
      </trkpt>
      <trkpt lat="50.732193" lon="6.361470">
        <ele>339.963000</ele>
        <time>2009-02-20T00:51:10Z</time>
      </trkpt>
      <trkpt lat="50.731707" lon="6.361142">
        <ele>342.367000</ele>
        <time>2009-02-20T00:51:48Z</time>
      </trkpt>
      <trkpt lat="50.731289" lon="6.361226">
        <ele>345.731000</ele>
        <time>2009-02-20T00:52:19Z</time>
      </trkpt>
      <trkpt lat="50.730587" lon="6.361221">
        <ele>351.018000</ele>
        <time>2009-02-20T00:53:09Z</time>
      </trkpt>
      <trkpt lat="50.730156" lon="6.361196">
        <ele>354.383000</ele>
        <time>2009-02-20T00:53:40Z</time>
      </trkpt>
      <trkpt lat="50.729677" lon="6.361152">
        <ele>356.786000</ele>
        <time>2009-02-20T00:54:15Z</time>
      </trkpt>
      <trkpt lat="50.729354" lon="6.361094">
        <ele>358.228000</ele>
        <time>2009-02-20T00:54:38Z</time>
      </trkpt>
      <trkpt lat="50.728342" lon="6.361026">
        <ele>362.074000</ele>
        <time>2009-02-20T00:55:51Z</time>
      </trkpt>
      <trkpt lat="50.728162" lon="6.361304">
        <ele>363.035000</ele>
        <time>2009-02-20T00:56:09Z</time>
      </trkpt>
      <trkpt lat="50.727765" lon="6.362168">
        <ele>363.516000</ele>
        <time>2009-02-20T00:56:58Z</time>
      </trkpt>
      <trkpt lat="50.726755" lon="6.366329">
        <ele>363.996000</ele>
        <time>2009-02-20T01:00:21Z</time>
      </trkpt>
      <trkpt lat="50.726440" lon="6.367591">
        <ele>364.958000</ele>
        <time>2009-02-20T01:01:23Z</time>
      </trkpt>
      <trkpt lat="50.726222" lon="6.368286">
        <ele>365.919000</ele>
        <time>2009-02-20T01:01:58Z</time>
      </trkpt>
      <trkpt lat="50.726115" lon="6.368564">
        <ele>365.919000</ele>
        <time>2009-02-20T01:02:13Z</time>
      </trkpt>
      <trkpt lat="50.725893" lon="6.369313">
        <ele>367.361000</ele>
        <time>2009-02-20T01:02:51Z</time>
      </trkpt>
      <trkpt lat="50.725466" lon="6.370600">
        <ele>371.687000</ele>
        <time>2009-02-20T01:03:57Z</time>
      </trkpt>
      <trkpt lat="50.725417" lon="6.370753">
        <ele>371.687000</ele>
        <time>2009-02-20T01:04:05Z</time>
      </trkpt>
      <trkpt lat="50.725013" lon="6.372083">
        <ele>376.974000</ele>
        <time>2009-02-20T01:05:12Z</time>
      </trkpt>
      <trkpt lat="50.724674" lon="6.373190">
        <ele>374.571000</ele>
        <time>2009-02-20T01:06:08Z</time>
      </trkpt>
      <trkpt lat="50.724642" lon="6.373362">
        <ele>374.571000</ele>
        <time>2009-02-20T01:06:16Z</time>
      </trkpt>
      <trkpt lat="50.724241" lon="6.374599">
        <ele>376.974000</ele>
        <time>2009-02-20T01:07:20Z</time>
      </trkpt>
      <trkpt lat="50.723799" lon="6.375983">
        <ele>380.339000</ele>
        <time>2009-02-20T01:08:30Z</time>
      </trkpt>
      <trkpt lat="50.723211" lon="6.377871">
        <ele>381.300000</ele>
        <time>2009-02-20T01:10:06Z</time>
      </trkpt>
      <trkpt lat="50.723006" lon="6.378508">
        <ele>382.261000</ele>
        <time>2009-02-20T01:10:39Z</time>
      </trkpt>
      <trkpt lat="50.722529" lon="6.380030">
        <ele>382.742000</ele>
        <time>2009-02-20T01:11:56Z</time>
      </trkpt>
      <trkpt lat="50.721685" lon="6.382709">
        <ele>386.107000</ele>
        <time>2009-02-20T01:14:13Z</time>
      </trkpt>
      <trkpt lat="50.721387" lon="6.383555">
        <ele>387.549000</ele>
        <time>2009-02-20T01:14:57Z</time>
      </trkpt>
      <trkpt lat="50.721451" lon="6.383851">
        <ele>388.029000</ele>
        <time>2009-02-20T01:15:11Z</time>
      </trkpt>
      <trkpt lat="50.721675" lon="6.384038">
        <ele>388.991000</ele>
        <time>2009-02-20T01:15:29Z</time>
      </trkpt>
      <trkpt lat="50.723057" lon="6.385156">
        <ele>390.433000</ele>
        <time>2009-02-20T01:17:21Z</time>
      </trkpt>
      <trkpt lat="50.724063" lon="6.385994">
        <ele>391.875000</ele>
        <time>2009-02-20T01:18:43Z</time>
      </trkpt>
      <trkpt lat="50.724974" lon="6.386471">
        <ele>393.797000</ele>
        <time>2009-02-20T01:19:52Z</time>
      </trkpt>
      <trkpt lat="50.726266" lon="6.386886">
        <ele>391.875000</ele>
        <time>2009-02-20T01:21:27Z</time>
      </trkpt>
      <trkpt lat="50.727903" lon="6.387416">
        <ele>387.549000</ele>
        <time>2009-02-20T01:23:27Z</time>
      </trkpt>
      <trkpt lat="50.729046" lon="6.387789">
        <ele>386.107000</ele>
        <time>2009-02-20T01:24:51Z</time>
      </trkpt>
      <trkpt lat="50.729163" lon="6.387825">
        <ele>386.107000</ele>
        <time>2009-02-20T01:25:00Z</time>
      </trkpt>
      <trkpt lat="50.729836" lon="6.387742">
        <ele>382.261000</ele>
        <time>2009-02-20T01:25:49Z</time>
      </trkpt>
      <trkpt lat="50.730444" lon="6.387648">
        <ele>378.897000</ele>
        <time>2009-02-20T01:26:33Z</time>
      </trkpt>
      <trkpt lat="50.731566" lon="6.387446">
        <ele>376.013000</ele>
        <time>2009-02-20T01:27:54Z</time>
      </trkpt>
      <trkpt lat="50.731989" lon="6.387383">
        <ele>372.648000</ele>
        <time>2009-02-20T01:28:24Z</time>
      </trkpt>
      <trkpt lat="50.732598" lon="6.387274">
        <ele>372.167000</ele>
        <time>2009-02-20T01:29:09Z</time>
      </trkpt>
      <trkpt lat="50.733220" lon="6.387758">
        <ele>368.803000</ele>
        <time>2009-02-20T01:29:59Z</time>
      </trkpt>
      <trkpt lat="50.733511" lon="6.388034">
        <ele>368.803000</ele>
        <time>2009-02-20T01:30:23Z</time>
      </trkpt>
      <trkpt lat="50.733693" lon="6.388433">
        <ele>370.726000</ele>
        <time>2009-02-20T01:30:45Z</time>
      </trkpt>
      <trkpt lat="50.733881" lon="6.388412">
        <ele>371.206000</ele>
        <time>2009-02-20T01:30:59Z</time>
      </trkpt>
      <trkpt lat="50.733909" lon="6.387955">
        <ele>372.648000</ele>
        <time>2009-02-20T01:31:20Z</time>
      </trkpt>
      <trkpt lat="50.734005" lon="6.386692">
        <ele>369.284000</ele>
        <time>2009-02-20T01:32:18Z</time>
      </trkpt>
      <trkpt lat="50.734191" lon="6.385244">
        <ele>367.842000</ele>
        <time>2009-02-20T01:33:25Z</time>
      </trkpt>
      <trkpt lat="50.734446" lon="6.384870">
        <ele>365.438000</ele>
        <time>2009-02-20T01:33:50Z</time>
      </trkpt>
      <trkpt lat="50.734527" lon="6.384770">
        <ele>365.438000</ele>
        <time>2009-02-20T01:33:58Z</time>
      </trkpt>
      <trkpt lat="50.734937" lon="6.383573">
        <ele>362.554000</ele>
        <time>2009-02-20T01:35:00Z</time>
      </trkpt>
      <trkpt lat="50.735094" lon="6.382216">
        <ele>366.880000</ele>
        <time>2009-02-20T01:36:03Z</time>
      </trkpt>
      <trkpt lat="50.735172" lon="6.381589">
        <ele>366.880000</ele>
        <time>2009-02-20T01:36:32Z</time>
      </trkpt>
      <trkpt lat="50.735192" lon="6.381432">
        <ele>366.880000</ele>
        <time>2009-02-20T01:36:39Z</time>
      </trkpt>
    </trkseg>
  </trk>

</gpx>
